ELY777 LLBG-KSFO
Flight info
| Callsign | ELY777 |
|---|---|
| Flight time | N/A |
| Altitude | 32000 |
| Route | SUVAS N128 OTHON UN128 YOYYO UN618 IMR UN128 LMO DCT EVIVI L863 OKANA DCT NIVIS/N0485F340 DCT BABIT DCT SOGMO DCT SASAL DCT DEXIT DCT INBED DCT BOMBI DCT ADKUV DCT BUB L608 DENUT L610 KOPUL Q60 OKSAW DCT FELCA DCT FADZU DCT BANBA DCT LIMRI/M084F360 DCT 53N020W 53N030W 53N040W 52N050W DCT TUDEP/N0478F360 DCT ANCER/N0486F380 DCT SSM J140 DLH/N0491F400 J32 FMG DCT ORRCA RISTI1 |
| Aircraft | B772/H-SDE2E3FGHIJ5LORVWXY/LB1D1 |
Departure
| Time | 2026-05-05 17:06 |
|---|---|
| Airport | Ben Gurion International Airport (LLBG) |
Arrival
| Time | N/A |
|---|---|
| Airport | San Francisco International Airport (KSFO) |
| Time | Latitude | Longitude | Altitude | Speed | Heading |
|---|---|---|---|---|---|
| 2026-05-05 16:38 | 32.00424 | 34.87624 | 119 ft | 0 kts | 237° |
| 2026-05-05 16:54 | 32.00430 | 34.87635 | 124 ft | 4 kts | 238° |
| 2026-05-05 16:54 | 32.00444 | 34.87662 | 119 ft | 4 kts | 239° |
| 2026-05-05 16:55 | 32.00455 | 34.87683 | 120 ft | 4 kts | 250° |
| 2026-05-05 16:55 | 32.00456 | 34.87704 | 119 ft | 4 kts | 331° |
| 2026-05-05 16:55 | 32.00455 | 34.87706 | 119 ft | 4 kts | 345° |
| 2026-05-05 16:55 | 32.00479 | 34.87700 | 119 ft | 2 kts | 346° |
| 2026-05-05 16:56 | 32.00480 | 34.87699 | 119 ft | 0 kts | 346° |
| 2026-05-05 17:00 | 32.00481 | 34.87699 | 119 ft | 1 kts | 346° |
| 2026-05-05 17:00 | 32.00538 | 34.87686 | 119 ft | 14 kts | 358° |
| 2026-05-05 17:01 | 32.00620 | 34.87740 | 120 ft | 14 kts | 67° |
| 2026-05-05 17:01 | 32.00594 | 34.87848 | 121 ft | 14 kts | 112° |
| 2026-05-05 17:01 | 32.00634 | 34.87950 | 120 ft | 18 kts | 35° |
| 2026-05-05 17:01 | 32.00761 | 34.88043 | 121 ft | 25 kts | 32° |
| 2026-05-05 17:02 | 32.00907 | 34.88151 | 121 ft | 25 kts | 32° |
| 2026-05-05 17:02 | 32.01056 | 34.88260 | 121 ft | 25 kts | 31° |
| 2026-05-05 17:02 | 32.01202 | 34.88365 | 121 ft | 25 kts | 31° |
| 2026-05-05 17:02 | 32.01339 | 34.88493 | 122 ft | 25 kts | 48° |
| 2026-05-05 17:03 | 32.01440 | 34.88655 | 119 ft | 25 kts | 62° |
| 2026-05-05 17:03 | 32.01495 | 34.88849 | 122 ft | 25 kts | 78° |
| 2026-05-05 17:03 | 32.01527 | 34.89050 | 124 ft | 26 kts | 79° |
| 2026-05-05 17:03 | 32.01560 | 34.89259 | 121 ft | 26 kts | 79° |
| 2026-05-05 17:04 | 32.01592 | 34.89467 | 119 ft | 26 kts | 79° |
| 2026-05-05 17:04 | 32.01613 | 34.89607 | 121 ft | 12 kts | 78° |
| 2026-05-05 17:04 | 32.01671 | 34.89699 | 120 ft | 19 kts | 31° |
| 2026-05-05 17:04 | 32.01778 | 34.89762 | 119 ft | 19 kts | 12° |
| 2026-05-05 17:05 | 32.01833 | 34.89670 | 118 ft | 16 kts | 265° |
| 2026-05-05 17:05 | 32.01826 | 34.89606 | 120 ft | 0 kts | 261° |
| 2026-05-05 17:05 | 32.01806 | 34.89460 | 118 ft | 50 kts | 261° |
| 2026-05-05 17:05 | 32.01700 | 34.88784 | 122 ft | 116 kts | 259° |
| 2026-05-05 17:06 | 32.01523 | 34.87617 | 124 ft | 172 kts | 259° |
| 2026-05-05 17:06 | 32.01275 | 34.86117 | 430 ft | 195 kts | 262° |
| 2026-05-05 17:06 | 32.01319 | 34.84545 | 1086 ft | 194 kts | 284° |
| 2026-05-05 17:06 | 32.01622 | 34.82991 | 1873 ft | 196 kts | 283° |
| 2026-05-05 17:07 | 32.01915 | 34.81321 | 2111 ft | 215 kts | 283° |
| 2026-05-05 17:07 | 32.02224 | 34.79566 | 2368 ft | 226 kts | 283° |
| 2026-05-05 17:07 | 32.02559 | 34.77700 | 2628 ft | 237 kts | 282° |
| 2026-05-05 17:07 | 32.02869 | 34.75766 | 2981 ft | 244 kts | 276° |
| 2026-05-05 17:08 | 32.02942 | 34.73750 | 3479 ft | 247 kts | 271° |
| 2026-05-05 17:08 | 32.02967 | 34.71732 | 4022 ft | 245 kts | 276° |
| 2026-05-05 17:08 | 32.03257 | 34.69745 | 4533 ft | 247 kts | 282° |
| 2026-05-05 17:08 | 32.03661 | 34.67795 | 5013 ft | 251 kts | 283° |